sensor_id;sensor_type;location;lat;lon;timestamp;temperature;humidity
45491;DHT22;31237;45.586;13.782;2023-02-01T00:01:58;3.70;79.60
45491;DHT22;31237;45.586;13.782;2023-02-01T00:04:23;3.70;79.60
45491;DHT22;31237;45.586;13.782;2023-02-01T00:06:49;3.70;79.60
45491;DHT22;31237;45.586;13.782;2023-02-01T00:09:15;3.70;79.70
45491;DHT22;31237;45.586;13.782;2023-02-01T00:11:40;3.70;79.90
45491;DHT22;31237;45.586;13.782;2023-02-01T00:14:06;3.60;79.80
45491;DHT22;31237;45.586;13.782;2023-02-01T00:16:33;3.70;79.90
45491;DHT22;31237;45.586;13.782;2023-02-01T00:19:09;3.60;79.80
45491;DHT22;31237;45.586;13.782;2023-02-01T00:21:35;3.60;80.00
45491;DHT22;31237;45.586;13.782;2023-02-01T00:24:02;3.60;80.00
45491;DHT22;31237;45.586;13.782;2023-02-01T00:26:33;3.50;80.00
45491;DHT22;31237;45.586;13.782;2023-02-01T00:29:00;3.50;80.20
45491;DHT22;31237;45.586;13.782;2023-02-01T00:31:26;3.50;80.10
45491;DHT22;31237;45.586;13.782;2023-02-01T00:33:52;3.50;80.20
45491;DHT22;31237;45.586;13.782;2023-02-01T00:36:18;3.50;80.40
45491;DHT22;31237;45.586;13.782;2023-02-01T00:38:44;3.50;80.30
45491;DHT22;31237;45.586;13.782;2023-02-01T00:41:18;3.50;80.30
45491;DHT22;31237;45.586;13.782;2023-02-01T00:43:45;3.60;80.30
45491;DHT22;31237;45.586;13.782;2023-02-01T00:46:13;3.60;80.10
45491;DHT22;31237;45.586;13.782;2023-02-01T00:48:39;3.60;80.00
45491;DHT22;31237;45.586;13.782;2023-02-01T00:51:13;3.60;79.80
45491;DHT22;31237;45.586;13.782;2023-02-01T00:53:40;3.60;79.60
45491;DHT22;31237;45.586;13.782;2023-02-01T00:56:07;3.60;79.40
45491;DHT22;31237;45.586;13.782;2023-02-01T00:58:33;3.50;79.30
45491;DHT22;31237;45.586;13.782;2023-02-01T01:03:31;3.50;79.20
45491;DHT22;31237;45.586;13.782;2023-02-01T01:05:59;3.50;79.20
45491;DHT22;31237;45.586;13.782;2023-02-01T01:08:26;3.40;79.20
45491;DHT22;31237;45.586;13.782;2023-02-01T01:10:52;3.40;79.40
45491;DHT22;31237;45.586;13.782;2023-02-01T01:13:18;3.40;79.40
45491;DHT22;31237;45.586;13.782;2023-02-01T01:15:44;3.40;79.50
45491;DHT22;31237;45.586;13.782;2023-02-01T01:18:10;3.40;79.40
45491;DHT22;31237;45.586;13.782;2023-02-01T01:20:38;3.30;79.30
45491;DHT22;31237;45.586;13.782;2023-02-01T01:23:05;3.30;79.20
45491;DHT22;31237;45.586;13.782;2023-02-01T01:25:31;3.30;79.20
45491;DHT22;31237;45.586;13.782;2023-02-01T01:27:57;3.30;79.00
45491;DHT22;31237;45.586;13.782;2023-02-01T01:30:23;3.30;78.70
45491;DHT22;31237;45.586;13.782;2023-02-01T01:32:50;3.30;78.30
45491;DHT22;31237;45.586;13.782;2023-02-01T01:35:17;3.40;77.70
45491;DHT22;31237;45.586;13.782;2023-02-01T01:37:42;3.40;77.20
45491;DHT22;31237;45.586;13.782;2023-02-01T01:40:10;3.40;76.40
45491;DHT22;31237;45.586;13.782;2023-02-01T01:42:40;3.40;76.00
45491;DHT22;31237;45.586;13.782;2023-02-01T01:48:06;3.40;75.30
45491;DHT22;31237;45.586;13.782;2023-02-01T01:53:09;3.40;75.10
45491;DHT22;31237;45.586;13.782;2023-02-01T01:55:41;3.40;74.70
45491;DHT22;31237;45.586;13.782;2023-02-01T01:58:13;3.40;74.80
45491;DHT22;31237;45.586;13.782;2023-02-01T02:00:41;3.40;74.30
45491;DHT22;31237;45.586;13.782;2023-02-01T02:03:17;3.40;74.10
45491;DHT22;31237;45.586;13.782;2023-02-01T02:05:46;3.40;73.70
45491;DHT22;31237;45.586;13.782;2023-02-01T02:08:14;3.40;73.50
45491;DHT22;31237;45.586;13.782;2023-02-01T02:10:40;3.40;73.40
45491;DHT22;31237;45.586;13.782;2023-02-01T02:13:24;3.40;73.10
45491;DHT22;31237;45.586;13.782;2023-02-01T02:33:02;3.40;72.30
45491;DHT22;31237;45.586;13.782;2023-02-01T02:35:43;3.40;72.20
45491;DHT22;31237;45.586;13.782;2023-02-01T02:39:04;3.40;72.10
45491;DHT22;31237;45.586;13.782;2023-02-01T02:43:48;3.40;72.50
45491;DHT22;31237;45.586;13.782;2023-02-01T02:46:39;3.40;72.60
45491;DHT22;31237;45.586;13.782;2023-02-01T02:49:49;3.40;72.80
45491;DHT22;31237;45.586;13.782;2023-02-01T02:52:50;3.50;73.10
45491;DHT22;31237;45.586;13.782;2023-02-01T02:55:37;3.60;73.50
45491;DHT22;31237;45.586;13.782;2023-02-01T02:58:05;3.70;73.60
45491;DHT22;31237;45.586;13.782;2023-02-01T03:00:51;3.70;73.60
45491;DHT22;31237;45.586;13.782;2023-02-01T03:03:38;3.80;73.70
45491;DHT22;31237;45.586;13.782;2023-02-01T03:06:24;3.90;74.50
45491;DHT22;31237;45.586;13.782;2023-02-01T03:08:50;4.00;74.40
45491;DHT22;31237;45.586;13.782;2023-02-01T03:11:20;4.00;74.50
45491;DHT22;31237;45.586;13.782;2023-02-01T03:13:59;4.10;74.80
45491;DHT22;31237;45.586;13.782;2023-02-01T03:19:09;4.20;75.50
45491;DHT22;31237;45.586;13.782;2023-02-01T03:21:48;4.20;75.40
45491;DHT22;31237;45.586;13.782;2023-02-01T03:24:40;4.30;75.60
45491;DHT22;31237;45.586;13.782;2023-02-01T03:32:25;4.40;76.20
45491;DHT22;31237;45.586;13.782;2023-02-01T03:34:51;4.40;76.10
45491;DHT22;31237;45.586;13.782;2023-02-01T03:37:26;4.40;76.00
45491;DHT22;31237;45.586;13.782;2023-02-01T03:45:14;4.50;76.20
45491;DHT22;31237;45.586;13.782;2023-02-01T03:47:46;4.60;76.40
45491;DHT22;31237;45.586;13.782;2023-02-01T03:50:17;4.60;76.50
45491;DHT22;31237;45.586;13.782;2023-02-01T03:52:56;4.60;76.40
45491;DHT22;31237;45.586;13.782;2023-02-01T03:55:25;4.70;76.20
45491;DHT22;31237;45.586;13.782;2023-02-01T03:58:09;4.70;76.80
45491;DHT22;31237;45.586;13.782;2023-02-01T04:00:37;4.70;76.60
45491;DHT22;31237;45.586;13.782;2023-02-01T04:03:05;4.70;76.50
45491;DHT22;31237;45.586;13.782;2023-02-01T04:05:31;4.70;76.70
45491;DHT22;31237;45.586;13.782;2023-02-01T04:07:57;4.70;76.60
45491;DHT22;31237;45.586;13.782;2023-02-01T04:10:23;4.70;76.70
45491;DHT22;31237;45.586;13.782;2023-02-01T04:12:49;4.80;76.80
45491;DHT22;31237;45.586;13.782;2023-02-01T04:15:15;4.80;76.90
45491;DHT22;31237;45.586;13.782;2023-02-01T04:17:40;4.80;76.70
45491;DHT22;31237;45.586;13.782;2023-02-01T04:20:06;4.90;76.80
45491;DHT22;31237;45.586;13.782;2023-02-01T04:22:32;4.90;76.70
45491;DHT22;31237;45.586;13.782;2023-02-01T04:24:58;4.90;76.60
45491;DHT22;31237;45.586;13.782;2023-02-01T04:27:24;4.90;76.50
45491;DHT22;31237;45.586;13.782;2023-02-01T04:29:50;4.90;76.40
45491;DHT22;31237;45.586;13.782;2023-02-01T04:32:16;4.90;76.30
45491;DHT22;31237;45.586;13.782;2023-02-01T04:34:42;5.00;76.30
45491;DHT22;31237;45.586;13.782;2023-02-01T04:37:08;5.00;76.20
45491;DHT22;31237;45.586;13.782;2023-02-01T04:39:34;5.00;76.20
45491;DHT22;31237;45.586;13.782;2023-02-01T04:42:00;5.00;76.20
45491;DHT22;31237;45.586;13.782;2023-02-01T04:44:25;5.00;76.30
45491;DHT22;31237;45.586;13.782;2023-02-01T04:46:51;5.00;76.30
45491;DHT22;31237;45.586;13.782;2023-02-01T04:49:17;5.00;76.20
45491;DHT22;31237;45.586;13.782;2023-02-01T04:51:43;5.00;76.30
45491;DHT22;31237;45.586;13.782;2023-02-01T04:54:09;5.10;76.40
45491;DHT22;31237;45.586;13.782;2023-02-01T04:56:37;5.00;76.40
45491;DHT22;31237;45.586;13.782;2023-02-01T04:59:03;5.00;76.50
45491;DHT22;31237;45.586;13.782;2023-02-01T05:01:29;5.00;76.60
45491;DHT22;31237;45.586;13.782;2023-02-01T05:03:55;5.00;76.70
45491;DHT22;31237;45.586;13.782;2023-02-01T05:06:22;5.00;76.90
45491;DHT22;31237;45.586;13.782;2023-02-01T05:08:48;5.00;77.20
45491;DHT22;31237;45.586;13.782;2023-02-01T05:11:13;5.10;77.40
45491;DHT22;31237;45.586;13.782;2023-02-01T05:13:58;5.10;77.70
45491;DHT22;31237;45.586;13.782;2023-02-01T05:16:25;5.10;77.90
45491;DHT22;31237;45.586;13.782;2023-02-01T05:18:51;5.10;77.80
45491;DHT22;31237;45.586;13.782;2023-02-01T05:21:17;5.10;77.90
45491;DHT22;31237;45.586;13.782;2023-02-01T05:23:42;5.10;78.20
45491;DHT22;31237;45.586;13.782;2023-02-01T05:26:27;5.10;78.20
45491;DHT22;31237;45.586;13.782;2023-02-01T05:28:53;5.10;78.60
45491;DHT22;31237;45.586;13.782;2023-02-01T05:31:18;5.10;78.60
45491;DHT22;31237;45.586;13.782;2023-02-01T05:33:44;5.00;78.70
45491;DHT22;31237;45.586;13.782;2023-02-01T05:36:10;5.00;79.10
45491;DHT22;31237;45.586;13.782;2023-02-01T05:38:35;5.00;79.60
45491;DHT22;31237;45.586;13.782;2023-02-01T05:41:01;5.00;79.90
45491;DHT22;31237;45.586;13.782;2023-02-01T05:43:27;5.00;79.90
45491;DHT22;31237;45.586;13.782;2023-02-01T05:45:52;5.00;80.30
45491;DHT22;31237;45.586;13.782;2023-02-01T05:48:18;5.00;80.50
45491;DHT22;31237;45.586;13.782;2023-02-01T05:50:45;5.00;80.60
45491;DHT22;31237;45.586;13.782;2023-02-01T05:53:11;5.00;80.90
45491;DHT22;31237;45.586;13.782;2023-02-01T05:55:37;5.00;81.20
45491;DHT22;31237;45.586;13.782;2023-02-01T05:58:03;5.00;81.30
45491;DHT22;31237;45.586;13.782;2023-02-01T06:00:29;4.90;81.70
45491;DHT22;31237;45.586;13.782;2023-02-01T06:02:55;4.90;81.50
45491;DHT22;31237;45.586;13.782;2023-02-01T06:05:21;4.90;81.60
45491;DHT22;31237;45.586;13.782;2023-02-01T06:07:47;4.90;81.90
45491;DHT22;31237;45.586;13.782;2023-02-01T06:10:15;4.90;82.20
45491;DHT22;31237;45.586;13.782;2023-02-01T06:12:41;4.90;82.60
45491;DHT22;31237;45.586;13.782;2023-02-01T06:15:08;4.90;82.60
45491;DHT22;31237;45.586;13.782;2023-02-01T06:17:34;4.80;82.70
45491;DHT22;31237;45.586;13.782;2023-02-01T06:20:00;4.80;83.10
45491;DHT22;31237;45.586;13.782;2023-02-01T06:22:26;4.80;83.20
45491;DHT22;31237;45.586;13.782;2023-02-01T06:24:51;4.80;83.40
45491;DHT22;31237;45.586;13.782;2023-02-01T06:27:17;4.80;83.50
45491;DHT22;31237;45.586;13.782;2023-02-01T06:29:43;4.80;83.40
45491;DHT22;31237;45.586;13.782;2023-02-01T06:32:08;4.70;83.60
45491;DHT22;31237;45.586;13.782;2023-02-01T06:34:34;4.70;83.90
45491;DHT22;31237;45.586;13.782;2023-02-01T06:37:00;4.70;83.90
45491;DHT22;31237;45.586;13.782;2023-02-01T06:39:26;4.70;84.30
45491;DHT22;31237;45.586;13.782;2023-02-01T06:41:52;4.70;84.30
45491;DHT22;31237;45.586;13.782;2023-02-01T06:44:18;4.60;84.40
45491;DHT22;31237;45.586;13.782;2023-02-01T06:46:44;4.60;84.50
45491;DHT22;31237;45.586;13.782;2023-02-01T06:49:10;4.60;84.60
45491;DHT22;31237;45.586;13.782;2023-02-01T06:51:35;4.60;84.90
45491;DHT22;31237;45.586;13.782;2023-02-01T06:54:01;4.60;85.10
45491;DHT22;31237;45.586;13.782;2023-02-01T06:56:27;4.60;85.30
45491;DHT22;31237;45.586;13.782;2023-02-01T06:58:53;4.60;85.30
45491;DHT22;31237;45.586;13.782;2023-02-01T07:01:19;4.60;85.70
45491;DHT22;31237;45.586;13.782;2023-02-01T07:03:49;4.60;85.90
45491;DHT22;31237;45.586;13.782;2023-02-01T07:06:16;4.70;86.30
45491;DHT22;31237;45.586;13.782;2023-02-01T07:08:42;4.70;86.60
45491;DHT22;31237;45.586;13.782;2023-02-01T07:11:11;4.70;86.90
45491;DHT22;31237;45.586;13.782;2023-02-01T07:13:37;4.80;86.70
45491;DHT22;31237;45.586;13.782;2023-02-01T07:16:06;4.80;87.30
45491;DHT22;31237;45.586;13.782;2023-02-01T07:18:32;4.90;87.20
45491;DHT22;31237;45.586;13.782;2023-02-01T07:20:59;5.00;87.00
45491;DHT22;31237;45.586;13.782;2023-02-01T07:23:26;5.00;87.20
45491;DHT22;31237;45.586;13.782;2023-02-01T07:25:56;5.10;87.50
45491;DHT22;31237;45.586;13.782;2023-02-01T07:28:23;5.20;87.30
45491;DHT22;31237;45.586;13.782;2023-02-01T07:30:49;5.20;87.30
45491;DHT22;31237;45.586;13.782;2023-02-01T07:33:25;5.30;87.40
45491;DHT22;31237;45.586;13.782;2023-02-01T07:35:51;5.40;87.40
45491;DHT22;31237;45.586;13.782;2023-02-01T07:38:17;5.50;87.50
45491;DHT22;31237;45.586;13.782;2023-02-01T07:40:43;5.50;87.40
45491;DHT22;31237;45.586;13.782;2023-02-01T07:43:09;5.60;87.10
45491;DHT22;31237;45.586;13.782;2023-02-01T07:45:35;5.70;87.20
45491;DHT22;31237;45.586;13.782;2023-02-01T07:48:02;5.80;87.20
45491;DHT22;31237;45.586;13.782;2023-02-01T07:50:29;5.90;87.40
45491;DHT22;31237;45.586;13.782;2023-02-01T07:52:55;6.00;87.40
45491;DHT22;31237;45.586;13.782;2023-02-01T07:55:21;6.00;87.10
45491;DHT22;31237;45.586;13.782;2023-02-01T07:57:47;6.10;87.10
45491;DHT22;31237;45.586;13.782;2023-02-01T08:00:13;6.20;86.70
45491;DHT22;31237;45.586;13.782;2023-02-01T08:02:58;6.10;86.60
45491;DHT22;31237;45.586;13.782;2023-02-01T08:05:26;6.20;87.00
45491;DHT22;31237;45.586;13.782;2023-02-01T08:07:52;6.30;86.80
45491;DHT22;31237;45.586;13.782;2023-02-01T08:10:19;6.30;86.80
45491;DHT22;31237;45.586;13.782;2023-02-01T08:12:45;6.40;86.70
45491;DHT22;31237;45.586;13.782;2023-02-01T08:15:17;6.40;86.70
45491;DHT22;31237;45.586;13.782;2023-02-01T08:17:50;6.40;86.50
45491;DHT22;31237;45.586;13.782;2023-02-01T08:20:17;6.40;86.50
45491;DHT22;31237;45.586;13.782;2023-02-01T08:22:44;6.40;86.40
45491;DHT22;31237;45.586;13.782;2023-02-01T08:25:10;6.40;86.50
45491;DHT22;31237;45.586;13.782;2023-02-01T08:27:37;6.40;86.80
45491;DHT22;31237;45.586;13.782;2023-02-01T08:30:04;6.50;87.00
45491;DHT22;31237;45.586;13.782;2023-02-01T08:32:30;6.60;86.80
45491;DHT22;31237;45.586;13.782;2023-02-01T08:34:56;6.60;86.90
45491;DHT22;31237;45.586;13.782;2023-02-01T08:37:22;6.70;86.80
45491;DHT22;31237;45.586;13.782;2023-02-01T08:39:48;6.70;86.80
45491;DHT22;31237;45.586;13.782;2023-02-01T08:42:16;6.80;86.70
45491;DHT22;31237;45.586;13.782;2023-02-01T08:45:01;6.80;86.70
45491;DHT22;31237;45.586;13.782;2023-02-01T08:47:28;6.90;86.80
45491;DHT22;31237;45.586;13.782;2023-02-01T08:49:54;7.00;86.90
45491;DHT22;31237;45.586;13.782;2023-02-01T08:52:20;7.10;87.00
45491;DHT22;31237;45.586;13.782;2023-02-01T08:54:46;7.20;86.90
45491;DHT22;31237;45.586;13.782;2023-02-01T08:57:11;7.20;86.70
45491;DHT22;31237;45.586;13.782;2023-02-01T08:59:38;7.30;86.80
45491;DHT22;31237;45.586;13.782;2023-02-01T09:02:04;7.40;86.60
45491;DHT22;31237;45.586;13.782;2023-02-01T09:04:30;7.50;86.70
45491;DHT22;31237;45.586;13.782;2023-02-01T09:06:56;7.60;86.60
45491;DHT22;31237;45.586;13.782;2023-02-01T09:09:22;7.70;86.50
45491;DHT22;31237;45.586;13.782;2023-02-01T09:11:48;7.70;86.40
45491;DHT22;31237;45.586;13.782;2023-02-01T09:14:16;7.80;86.50
45491;DHT22;31237;45.586;13.782;2023-02-01T09:16:42;7.90;86.30
45491;DHT22;31237;45.586;13.782;2023-02-01T09:19:07;8.00;86.20
45491;DHT22;31237;45.586;13.782;2023-02-01T09:21:33;8.10;86.20
45491;DHT22;31237;45.586;13.782;2023-02-01T09:24:00;8.20;86.10
45491;DHT22;31237;45.586;13.782;2023-02-01T09:26:27;8.20;86.20
45491;DHT22;31237;45.586;13.782;2023-02-01T09:28:53;8.30;86.10
45491;DHT22;31237;45.586;13.782;2023-02-01T09:31:19;8.50;85.80
45491;DHT22;31237;45.586;13.782;2023-02-01T09:33:44;8.50;85.20
45491;DHT22;31237;45.586;13.782;2023-02-01T09:36:10;8.60;84.60
45491;DHT22;31237;45.586;13.782;2023-02-01T09:38:36;8.60;84.30
45491;DHT22;31237;45.586;13.782;2023-02-01T09:41:32;8.70;84.00
45491;DHT22;31237;45.586;13.782;2023-02-01T09:46:33;8.70;83.60
45491;DHT22;31237;45.586;13.782;2023-02-01T09:49:22;8.80;83.80
45491;DHT22;31237;45.586;13.782;2023-02-01T09:51:51;8.80;83.70
45491;DHT22;31237;45.586;13.782;2023-02-01T09:54:26;8.80;83.80
45491;DHT22;31237;45.586;13.782;2023-02-01T09:57:40;8.90;83.90
45491;DHT22;31237;45.586;13.782;2023-02-01T09:59:58;9.00;84.00
45491;DHT22;31237;45.586;13.782;2023-02-01T10:02:27;9.10;83.90
45491;DHT22;31237;45.586;13.782;2023-02-01T10:04:59;9.20;83.80
45491;DHT22;31237;45.586;13.782;2023-02-01T10:07:36;9.20;83.70
45491;DHT22;31237;45.586;13.782;2023-02-01T10:20:31;9.50;83.10
45491;DHT22;31237;45.586;13.782;2023-02-01T10:25:55;9.50;82.80
45491;DHT22;31237;45.586;13.782;2023-02-01T10:28:23;9.60;82.70
45491;DHT22;31237;45.586;13.782;2023-02-01T10:30:56;9.60;82.70
45491;DHT22;31237;45.586;13.782;2023-02-01T10:33:35;9.60;82.70
45491;DHT22;31237;45.586;13.782;2023-02-01T10:36:16;9.70;82.70
45491;DHT22;31237;45.586;13.782;2023-02-01T10:38:45;9.70;82.50
45491;DHT22;31237;45.586;13.782;2023-02-01T10:41:21;9.70;82.40
45491;DHT22;31237;45.586;13.782;2023-02-01T10:43:54;9.80;82.30
45491;DHT22;31237;45.586;13.782;2023-02-01T10:46:25;9.80;82.00
45491;DHT22;31237;45.586;13.782;2023-02-01T10:48:55;9.80;81.90
45491;DHT22;31237;45.586;13.782;2023-02-01T10:51:24;9.80;81.70
45491;DHT22;31237;45.586;13.782;2023-02-01T10:53:52;9.70;81.40
45491;DHT22;31237;45.586;13.782;2023-02-01T10:56:23;9.70;81.50
45491;DHT22;31237;45.586;13.782;2023-02-01T10:58:49;9.70;81.40
45491;DHT22;31237;45.586;13.782;2023-02-01T11:01:22;9.70;81.40
45491;DHT22;31237;45.586;13.782;2023-02-01T11:04:10;9.70;81.60
45491;DHT22;31237;45.586;13.782;2023-02-01T11:06:47;9.70;81.50
45491;DHT22;31237;45.586;13.782;2023-02-01T11:09:22;9.70;81.30
45491;DHT22;31237;45.586;13.782;2023-02-01T11:17:16;9.50;81.20
45491;DHT22;31237;45.586;13.782;2023-02-01T11:19:38;9.40;81.50
45491;DHT22;31237;45.586;13.782;2023-02-01T11:22:04;9.30;81.90
45491;DHT22;31237;45.586;13.782;2023-02-01T11:24:35;9.30;82.30
45491;DHT22;31237;45.586;13.782;2023-02-01T11:27:04;9.20;82.30
45491;DHT22;31237;45.586;13.782;2023-02-01T11:29:37;9.10;82.70
45491;DHT22;31237;45.586;13.782;2023-02-01T11:32:04;9.10;83.00
45491;DHT22;31237;45.586;13.782;2023-02-01T11:34:38;9.00;83.30
45491;DHT22;31237;45.586;13.782;2023-02-01T11:37:04;9.00;84.20
45491;DHT22;31237;45.586;13.782;2023-02-01T11:39:37;8.90;83.80
45491;DHT22;31237;45.586;13.782;2023-02-01T11:42:13;8.90;84.00
45491;DHT22;31237;45.586;13.782;2023-02-01T11:44:45;8.80;84.80
45491;DHT22;31237;45.586;13.782;2023-02-01T11:47:24;8.70;84.40
45491;DHT22;31237;45.586;13.782;2023-02-01T11:50:01;8.70;84.70
45491;DHT22;31237;45.586;13.782;2023-02-01T11:52:54;8.70;84.90
45491;DHT22;31237;45.586;13.782;2023-02-01T12:09:55;8.70;86.00
45491;DHT22;31237;45.586;13.782;2023-02-01T12:44:08;8.80;87.20
45491;DHT22;31237;45.586;13.782;2023-02-01T12:46:49;8.70;87.40
45491;DHT22;31237;45.586;13.782;2023-02-01T12:49:34;8.70;87.40
45491;DHT22;31237;45.586;13.782;2023-02-01T12:52:06;8.70;87.60
45491;DHT22;31237;45.586;13.782;2023-02-01T12:54:49;8.60;87.80
45491;DHT22;31237;45.586;13.782;2023-02-01T12:57:25;8.60;88.00
45491;DHT22;31237;45.586;13.782;2023-02-01T13:00:02;8.60;88.20
45491;DHT22;31237;45.586;13.782;2023-02-01T13:05:23;8.60;88.30
45491;DHT22;31237;45.586;13.782;2023-02-01T13:08:04;8.60;88.70
45491;DHT22;31237;45.586;13.782;2023-02-01T13:10:43;8.60;89.10
45491;DHT22;31237;45.586;13.782;2023-02-01T13:21:39;8.60;89.70
45491;DHT22;31237;45.586;13.782;2023-02-01T13:24:33;8.60;90.00
45491;DHT22;31237;45.586;13.782;2023-02-01T13:27:03;8.60;90.00
45491;DHT22;31237;45.586;13.782;2023-02-01T13:29:30;8.60;90.10
45491;DHT22;31237;45.586;13.782;2023-02-01T13:32:00;8.60;90.20
45491;DHT22;31237;45.586;13.782;2023-02-01T13:42:54;8.50;90.70
45491;DHT22;31237;45.586;13.782;2023-02-01T13:45:23;8.40;90.90
45491;DHT22;31237;45.586;13.782;2023-02-01T13:47:53;8.40;91.10
45491;DHT22;31237;45.586;13.782;2023-02-01T13:55:28;8.40;91.40
45491;DHT22;31237;45.586;13.782;2023-02-01T14:03:55;8.40;91.60
45491;DHT22;31237;45.586;13.782;2023-02-01T14:09:18;8.30;91.70
45491;DHT22;31237;45.586;13.782;2023-02-01T14:11:51;8.30;91.70
45491;DHT22;31237;45.586;13.782;2023-02-01T14:16:44;8.30;91.80
45491;DHT22;31237;45.586;13.782;2023-02-01T14:19:33;8.30;91.80
45491;DHT22;31237;45.586;13.782;2023-02-01T14:22:31;8.40;91.70
45491;DHT22;31237;45.586;13.782;2023-02-01T14:24:52;8.40;91.60
45491;DHT22;31237;45.586;13.782;2023-02-01T14:27:22;8.30;91.60
45491;DHT22;31237;45.586;13.782;2023-02-01T14:29:55;8.30;91.80
45491;DHT22;31237;45.586;13.782;2023-02-01T14:32:31;8.30;91.50
45491;DHT22;31237;45.586;13.782;2023-02-01T14:35:00;8.30;91.50
45491;DHT22;31237;45.586;13.782;2023-02-01T14:37:38;8.20;91.40
45491;DHT22;31237;45.586;13.782;2023-02-01T14:47:52;8.10;91.40
45491;DHT22;31237;45.586;13.782;2023-02-01T14:58:36;8.10;91.40
45491;DHT22;31237;45.586;13.782;2023-02-01T15:01:29;8.10;91.40
45491;DHT22;31237;45.586;13.782;2023-02-01T15:04:14;8.10;91.30
45491;DHT22;31237;45.586;13.782;2023-02-01T15:06:44;8.10;91.30
45491;DHT22;31237;45.586;13.782;2023-02-01T15:09:30;8.10;91.30
45491;DHT22;31237;45.586;13.782;2023-02-01T15:14:48;8.00;91.30
45491;DHT22;31237;45.586;13.782;2023-02-01T15:17:25;8.00;91.30
45491;DHT22;31237;45.586;13.782;2023-02-01T15:20:02;8.00;91.30
45491;DHT22;31237;45.586;13.782;2023-02-01T15:22:29;8.00;91.40
45491;DHT22;31237;45.586;13.782;2023-02-01T15:25:00;8.00;91.40
45491;DHT22;31237;45.586;13.782;2023-02-01T15:27:27;7.90;91.40
45491;DHT22;31237;45.586;13.782;2023-02-01T15:29:53;7.90;91.50
45491;DHT22;31237;45.586;13.782;2023-02-01T15:32:38;7.90;91.50
45491;DHT22;31237;45.586;13.782;2023-02-01T15:35:05;7.90;91.60
45491;DHT22;31237;45.586;13.782;2023-02-01T15:37:31;7.90;91.60
45491;DHT22;31237;45.586;13.782;2023-02-01T15:42:56;7.90;91.60
45491;DHT22;31237;45.586;13.782;2023-02-01T15:45:27;7.80;91.60
45491;DHT22;31237;45.586;13.782;2023-02-01T15:47:55;7.80;91.60
45491;DHT22;31237;45.586;13.782;2023-02-01T15:50:21;7.80;91.60
45491;DHT22;31237;45.586;13.782;2023-02-01T15:52:50;7.80;91.70
45491;DHT22;31237;45.586;13.782;2023-02-01T15:55:35;7.80;91.70
45491;DHT22;31237;45.586;13.782;2023-02-01T15:58:18;7.80;91.80
45491;DHT22;31237;45.586;13.782;2023-02-01T16:00:50;7.70;91.70
45491;DHT22;31237;45.586;13.782;2023-02-01T16:03:44;7.70;91.70
45491;DHT22;31237;45.586;13.782;2023-02-01T16:08:53;7.70;91.80
45491;DHT22;31237;45.586;13.782;2023-02-01T16:13:50;7.60;91.80
45491;DHT22;31237;45.586;13.782;2023-02-01T16:16:16;7.60;91.80
45491;DHT22;31237;45.586;13.782;2023-02-01T16:18:43;7.60;91.90
45491;DHT22;31237;45.586;13.782;2023-02-01T16:21:09;7.60;91.90
45491;DHT22;31237;45.586;13.782;2023-02-01T16:23:36;7.50;91.90
45491;DHT22;31237;45.586;13.782;2023-02-01T16:26:02;7.50;91.90
45491;DHT22;31237;45.586;13.782;2023-02-01T16:28:28;7.50;91.90
45491;DHT22;31237;45.586;13.782;2023-02-01T16:30:54;7.50;91.90
45491;DHT22;31237;45.586;13.782;2023-02-01T16:33:22;7.50;92.00
45491;DHT22;31237;45.586;13.782;2023-02-01T16:35:48;7.50;92.00
45491;DHT22;31237;45.586;13.782;2023-02-01T16:38:17;7.40;92.00
45491;DHT22;31237;45.586;13.782;2023-02-01T16:40:45;7.50;92.00
45491;DHT22;31237;45.586;13.782;2023-02-01T16:43:23;7.40;91.90
45491;DHT22;31237;45.586;13.782;2023-02-01T16:45:50;7.40;92.00
45491;DHT22;31237;45.586;13.782;2023-02-01T16:48:27;7.40;92.00
45491;DHT22;31237;45.586;13.782;2023-02-01T16:50:55;7.40;92.00
45491;DHT22;31237;45.586;13.782;2023-02-01T16:53:23;7.40;92.00
45491;DHT22;31237;45.586;13.782;2023-02-01T16:55:49;7.40;92.00
45491;DHT22;31237;45.586;13.782;2023-02-01T16:58:19;7.30;92.00
45491;DHT22;31237;45.586;13.782;2023-02-01T17:00:47;7.30;92.00
45491;DHT22;31237;45.586;13.782;2023-02-01T17:03:13;7.30;92.00
45491;DHT22;31237;45.586;13.782;2023-02-01T17:05:55;7.30;92.00
45491;DHT22;31237;45.586;13.782;2023-02-01T17:08:33;7.20;92.00
45491;DHT22;31237;45.586;13.782;2023-02-01T17:10:59;7.20;92.00
45491;DHT22;31237;45.586;13.782;2023-02-01T17:13:25;7.20;92.00
45491;DHT22;31237;45.586;13.782;2023-02-01T17:15:56;7.10;92.00
45491;DHT22;31237;45.586;13.782;2023-02-01T17:18:23;7.00;91.90
45491;DHT22;31237;45.586;13.782;2023-02-01T17:20:50;7.00;92.00
45491;DHT22;31237;45.586;13.782;2023-02-01T17:23:19;7.00;92.00
45491;DHT22;31237;45.586;13.782;2023-02-01T17:25:45;6.90;91.90
45491;DHT22;31237;45.586;13.782;2023-02-01T17:28:14;6.80;91.90
45491;DHT22;31237;45.586;13.782;2023-02-01T17:30:41;6.80;91.90
45491;DHT22;31237;45.586;13.782;2023-02-01T17:33:25;6.70;92.00
45491;DHT22;31237;45.586;13.782;2023-02-01T17:35:52;6.60;92.00
45491;DHT22;31237;45.586;13.782;2023-02-01T17:38:18;6.50;92.00
45491;DHT22;31237;45.586;13.782;2023-02-01T17:40:44;6.50;92.00
45491;DHT22;31237;45.586;13.782;2023-02-01T17:43:20;6.40;92.00
45491;DHT22;31237;45.586;13.782;2023-02-01T17:45:52;6.40;92.10
45491;DHT22;31237;45.586;13.782;2023-02-01T17:48:20;6.40;92.20
45491;DHT22;31237;45.586;13.782;2023-02-01T17:50:48;6.40;92.30
45491;DHT22;31237;45.586;13.782;2023-02-01T17:53:17;6.40;92.40
45491;DHT22;31237;45.586;13.782;2023-02-01T17:55:45;6.40;92.40
45491;DHT22;31237;45.586;13.782;2023-02-01T17:58:12;6.40;92.40
45491;DHT22;31237;45.586;13.782;2023-02-01T18:00:39;6.40;92.50
45491;DHT22;31237;45.586;13.782;2023-02-01T18:03:05;6.40;92.50
45491;DHT22;31237;45.586;13.782;2023-02-01T18:05:41;6.50;92.50
45491;DHT22;31237;45.586;13.782;2023-02-01T18:08:09;6.50;92.50
45491;DHT22;31237;45.586;13.782;2023-02-01T18:10:34;6.50;92.50
45491;DHT22;31237;45.586;13.782;2023-02-01T18:13:03;6.50;92.50
45491;DHT22;31237;45.586;13.782;2023-02-01T18:15:30;6.50;92.50
45491;DHT22;31237;45.586;13.782;2023-02-01T18:17:59;6.50;92.50
45491;DHT22;31237;45.586;13.782;2023-02-01T18:20:26;6.50;92.50
45491;DHT22;31237;45.586;13.782;2023-02-01T18:22:52;6.50;92.50
45491;DHT22;31237;45.586;13.782;2023-02-01T18:25:28;6.50;92.60
45491;DHT22;31237;45.586;13.782;2023-02-01T18:27:55;6.50;92.50
45491;DHT22;31237;45.586;13.782;2023-02-01T18:30:28;6.60;92.50
45491;DHT22;31237;45.586;13.782;2023-02-01T18:32:55;6.50;92.50
45491;DHT22;31237;45.586;13.782;2023-02-01T18:35:29;6.50;92.50
45491;DHT22;31237;45.586;13.782;2023-02-01T18:37:56;6.50;92.60
45491;DHT22;31237;45.586;13.782;2023-02-01T18:40:23;6.50;92.60